createdAt,value
2023-05-15T00:00:47.222Z,43.88
2023-05-15T00:03:33.585Z,43.98
2023-05-15T00:06:06.309Z,44.08
2023-05-15T00:08:38.540Z,44.10
2023-05-15T00:11:10.795Z,44.20
2023-05-15T00:13:43.125Z,44.35
2023-05-15T00:16:15.353Z,44.38
2023-05-15T00:18:47.687Z,44.49
2023-05-15T00:21:20.060Z,44.59
2023-05-15T00:23:54.154Z,44.60
2023-05-15T00:26:27.316Z,44.58
2023-05-15T00:28:59.556Z,44.68
2023-05-15T00:31:33.310Z,44.55
2023-05-15T00:34:05.508Z,44.64
2023-05-15T00:36:37.847Z,44.69
2023-05-15T00:39:10.092Z,44.72
2023-05-15T00:41:44.926Z,44.87
2023-05-15T00:44:20.208Z,44.83
2023-05-15T00:46:54.383Z,44.89
2023-05-15T00:49:29.627Z,44.85
2023-05-15T00:52:03.908Z,44.98
2023-05-15T00:54:36.667Z,45.09
2023-05-15T00:57:11.854Z,45.11
2023-05-15T00:59:46.865Z,45.03
2023-05-15T01:02:21.277Z,45.16
2023-05-15T01:04:53.590Z,45.28
2023-05-15T01:07:25.907Z,45.40
2023-05-15T01:09:59.227Z,45.48
2023-05-15T01:12:33.433Z,45.69
2023-05-15T01:15:06.287Z,45.73
2023-05-15T01:17:38.668Z,45.79
2023-05-15T01:20:14.806Z,45.84
2023-05-15T01:22:57.063Z,46.04
2023-05-15T01:26:04.803Z,45.99
2023-05-15T01:28:41.236Z,46.11
2023-05-15T01:31:17.922Z,46.09
2023-05-15T01:33:56.993Z,46.24
2023-05-15T01:36:37.331Z,46.35
2023-05-15T01:39:12.328Z,46.48
2023-05-15T01:41:52.656Z,46.49
2023-05-15T01:44:29.660Z,46.39
2023-05-15T01:47:06.585Z,46.42
2023-05-15T01:49:39.818Z,46.67
2023-05-15T01:52:18.911Z,46.59
2023-05-15T01:54:53.038Z,46.54
2023-05-15T01:57:26.829Z,46.70
2023-05-15T02:00:00.698Z,46.63
2023-05-15T02:02:34.216Z,46.74
2023-05-15T02:05:08.905Z,46.84
2023-05-15T02:07:42.496Z,46.80
2023-05-15T02:10:15.776Z,46.96
2023-05-15T02:12:49.633Z,46.98
2023-05-15T02:15:23.407Z,47.05
2023-05-15T02:17:56.221Z,47.05
2023-05-15T02:20:28.340Z,47.12
2023-05-15T02:23:00.372Z,47.24
2023-05-15T02:25:44.499Z,47.26
2023-05-15T02:28:25.612Z,47.38
2023-05-15T02:31:02.927Z,47.33
2023-05-15T02:33:50.294Z,47.45
2023-05-15T02:36:26.598Z,47.40
2023-05-15T02:39:00.141Z,47.52
2023-05-15T02:41:35.511Z,47.55
2023-05-15T02:44:08.844Z,47.64
2023-05-15T02:46:42.594Z,47.62
2023-05-15T02:49:15.538Z,47.70
2023-05-15T02:51:47.818Z,47.75
2023-05-15T02:54:21.251Z,47.82
2023-05-15T02:56:53.414Z,47.87
2023-05-15T02:59:25.997Z,48.04
2023-05-15T03:01:58.310Z,48.05
2023-05-15T03:04:30.462Z,48.09
2023-05-15T03:07:02.740Z,48.17
2023-05-15T03:09:34.898Z,48.31
2023-05-15T03:12:07.990Z,48.27
2023-05-15T03:14:40.214Z,48.44
2023-05-15T03:17:12.912Z,48.41
2023-05-15T03:19:45.139Z,48.50
2023-05-15T03:22:17.633Z,48.50
2023-05-15T03:24:50.095Z,48.59
2023-05-15T03:27:22.262Z,48.57
2023-05-15T03:29:54.554Z,48.45
2023-05-15T03:32:26.845Z,48.69
2023-05-15T03:34:58.917Z,48.92
2023-05-15T03:37:31.368Z,49.04
2023-05-15T03:40:04.631Z,49.01
2023-05-15T03:42:37.096Z,49.08
2023-05-15T03:45:11.374Z,49.12
2023-05-15T03:47:44.084Z,49.31
2023-05-15T03:50:16.530Z,49.24
2023-05-15T03:52:48.916Z,49.45
2023-05-15T03:55:21.060Z,49.38
2023-05-15T03:57:53.348Z,49.46
2023-05-15T04:00:26.239Z,49.55
2023-05-15T04:02:58.754Z,49.70
2023-05-15T04:05:31.183Z,49.76
2023-05-15T04:08:03.466Z,49.74
2023-05-15T04:10:35.610Z,49.81
2023-05-15T04:13:07.988Z,49.86
2023-05-15T04:15:41.764Z,49.96
2023-05-15T04:18:13.997Z,49.98
2023-05-15T04:20:46.206Z,50.10
2023-05-15T04:23:18.368Z,50.04
2023-05-15T04:25:51.528Z,50.24
2023-05-15T04:28:23.832Z,50.17
2023-05-15T04:30:56.078Z,50.15
2023-05-15T04:33:28.468Z,50.22
2023-05-15T04:36:00.756Z,50.22
2023-05-15T04:38:33.425Z,50.20
2023-05-15T04:41:05.879Z,50.26
2023-05-15T04:43:38.306Z,50.40
2023-05-15T04:46:11.702Z,50.27
2023-05-15T04:48:44.039Z,50.41
2023-05-15T04:51:16.407Z,50.51
2023-05-15T04:53:48.454Z,50.36
2023-05-15T04:56:21.447Z,50.46
2023-05-15T04:58:53.752Z,50.52
2023-05-15T05:01:26.128Z,50.42
2023-05-15T05:03:58.338Z,50.48
2023-05-15T05:06:30.794Z,50.34
2023-05-15T05:09:03.455Z,50.38
2023-05-15T05:11:35.985Z,50.47
2023-05-15T05:14:08.697Z,50.31
2023-05-15T05:16:41.756Z,50.53
2023-05-15T05:19:14.174Z,50.48
2023-05-15T05:21:47.141Z,50.56
2023-05-15T05:24:19.686Z,50.49
2023-05-15T05:26:52.574Z,50.59
2023-05-15T05:29:25.022Z,50.65
2023-05-15T05:31:57.456Z,50.63
2023-05-15T05:34:30.145Z,50.60
2023-05-15T05:37:02.691Z,50.50
2023-05-15T05:39:35.137Z,50.66
2023-05-15T05:42:08.321Z,50.48
2023-05-15T05:44:40.493Z,50.55
2023-05-15T05:47:12.851Z,50.48
2023-05-15T05:49:48.226Z,50.55
2023-05-15T05:52:20.542Z,50.49
2023-05-15T05:54:52.756Z,50.49
2023-05-15T05:57:25.027Z,50.47
2023-05-15T05:59:57.534Z,50.41
2023-05-15T06:02:29.912Z,50.40
2023-05-15T06:05:02.126Z,50.39
2023-05-15T06:07:34.354Z,50.37
2023-05-15T06:10:09.774Z,50.29
2023-05-15T06:12:42.598Z,50.29
2023-05-15T06:15:15.718Z,50.20
2023-05-15T06:17:47.817Z,50.28
2023-05-15T06:20:22.029Z,50.23
2023-05-15T06:22:54.267Z,50.22
2023-05-15T06:25:26.895Z,50.31
2023-05-15T06:27:59.047Z,50.31
2023-05-15T06:30:31.331Z,50.20
2023-05-15T06:33:03.722Z,50.04
2023-05-15T06:35:35.889Z,50.10
2023-05-15T06:38:08.322Z,50.05
2023-05-15T06:40:40.557Z,49.94
2023-05-15T06:43:12.694Z,49.94
2023-05-15T06:45:44.916Z,49.88
2023-05-15T06:48:17.183Z,49.72
2023-05-15T06:50:49.493Z,49.46
2023-05-15T06:53:21.965Z,49.36
2023-05-15T06:55:54.309Z,49.45
2023-05-15T06:58:27.036Z,49.66
2023-05-15T07:00:59.520Z,49.15
2023-05-15T07:03:33.263Z,48.90
2023-05-15T07:06:05.567Z,48.92
2023-05-15T07:08:37.908Z,48.82
2023-05-15T07:11:10.117Z,48.63
2023-05-15T07:13:42.361Z,48.51
2023-05-15T07:16:14.679Z,48.34
2023-05-15T07:18:47.182Z,48.39
2023-05-15T07:21:19.604Z,48.25
2023-05-15T07:23:51.833Z,48.06
2023-05-15T07:26:32.845Z,48.11
2023-05-15T07:29:09.868Z,47.84
2023-05-15T07:31:44.857Z,47.61
2023-05-15T07:34:17.260Z,47.57
2023-05-15T07:36:49.597Z,47.50
2023-05-15T07:39:21.873Z,47.46
2023-05-15T07:41:54.704Z,47.64
2023-05-15T07:47:20.669Z,47.26
2023-05-15T07:49:52.882Z,46.96
2023-05-15T07:52:25.520Z,46.87
2023-05-15T07:54:57.850Z,46.79
2023-05-15T07:57:30.033Z,46.72
2023-05-15T08:00:06.819Z,46.50
2023-05-15T08:02:39.099Z,46.38
2023-05-15T08:05:12.188Z,46.24
2023-05-15T08:07:44.816Z,45.91
2023-05-15T08:10:16.997Z,45.81
2023-05-15T08:12:50.589Z,45.80
2023-05-15T08:15:23.500Z,45.83
2023-05-15T08:17:56.000Z,45.71
2023-05-15T08:20:28.426Z,45.25
2023-05-15T08:25:44.820Z,45.17
2023-05-15T08:28:17.974Z,45.29
2023-05-15T08:30:50.113Z,45.20
2023-05-15T08:33:22.486Z,45.34
2023-05-15T08:35:54.859Z,45.22
2023-05-15T08:38:27.218Z,45.10
2023-05-15T08:41:04.018Z,45.23
2023-05-15T08:43:39.759Z,45.27
2023-05-15T08:46:12.665Z,45.10
2023-05-15T08:48:45.437Z,44.82
2023-05-15T08:51:19.803Z,44.58
2023-05-15T08:53:52.976Z,44.65
2023-05-15T08:56:25.347Z,44.55
2023-05-15T08:58:57.870Z,44.50
2023-05-15T09:01:31.571Z,44.22
2023-05-15T09:04:04.125Z,44.09
2023-05-15T09:06:37.532Z,43.93
2023-05-15T09:09:13.650Z,43.75
2023-05-15T09:11:49.310Z,44.09
2023-05-15T09:14:21.603Z,44.16
2023-05-15T09:16:53.971Z,43.86
2023-05-15T09:19:26.064Z,43.72
2023-05-15T09:22:16.598Z,44.02
2023-05-15T09:24:49.131Z,44.10
2023-05-15T09:27:22.069Z,44.09
2023-05-15T09:29:56.602Z,43.51
2023-05-15T09:32:29.927Z,43.42
2023-05-15T09:35:02.196Z,43.63
2023-05-15T09:37:35.715Z,43.59
2023-05-15T09:40:12.339Z,43.72
2023-05-15T09:42:52.592Z,43.54
2023-05-15T09:45:25.939Z,43.74
2023-05-15T09:48:00.878Z,43.39
2023-05-15T09:50:38.147Z,43.17
2023-05-15T09:53:14.520Z,43.39
2023-05-15T09:55:48.979Z,43.35
2023-05-15T09:58:23.490Z,43.15
2023-05-15T10:00:55.772Z,43.28
2023-05-15T10:03:28.098Z,43.01
2023-05-15T10:06:04.880Z,43.06
2023-05-15T10:08:37.850Z,43.11
2023-05-15T10:11:10.760Z,43.17
2023-05-15T10:13:43.544Z,42.70
2023-05-15T10:16:17.139Z,42.35
2023-05-15T10:18:52.760Z,42.54
2023-05-15T10:21:24.190Z,42.15
2023-05-15T10:23:58.999Z,42.15
2023-05-15T10:26:38.216Z,42.05
2023-05-15T10:29:13.210Z,41.94
2023-05-15T10:31:46.032Z,42.03
2023-05-15T10:34:20.001Z,41.79
2023-05-15T10:36:53.037Z,41.93
2023-05-15T10:39:28.706Z,41.80
2023-05-15T10:42:03.145Z,40.89
2023-05-15T10:44:35.463Z,41.10
2023-05-15T10:47:08.881Z,40.89
2023-05-15T10:49:41.638Z,41.21
2023-05-15T10:52:13.887Z,41.05
2023-05-15T10:54:46.151Z,41.09
2023-05-15T10:57:18.716Z,41.24
2023-05-15T10:59:51.744Z,41.16
2023-05-15T11:02:25.543Z,41.00
2023-05-15T11:05:02.032Z,41.03
2023-05-15T11:07:34.499Z,40.82
2023-05-15T11:10:40.170Z,40.78
2023-05-15T11:13:12.931Z,40.97
2023-05-15T11:15:49.320Z,40.69
2023-05-15T11:18:22.882Z,40.26
2023-05-15T11:21:12.217Z,40.61
2023-05-15T11:23:48.441Z,40.51
2023-05-15T11:26:35.433Z,40.49
2023-05-15T11:29:21.359Z,40.66
2023-05-15T11:31:52.029Z,40.44
2023-05-15T11:34:34.026Z,40.58
2023-05-15T11:37:11.250Z,40.36
2023-05-15T11:39:45.330Z,40.51
2023-05-15T11:42:18.690Z,40.54
2023-05-15T11:44:51.204Z,40.55
2023-05-15T11:47:24.573Z,40.34
2023-05-15T11:49:56.993Z,40.18
2023-05-15T11:52:31.969Z,40.45
2023-05-15T11:55:04.991Z,40.54
2023-05-15T11:57:38.868Z,40.08
2023-05-15T12:00:13.771Z,39.84
2023-05-15T12:02:46.131Z,40.05
2023-05-15T12:05:18.576Z,40.07
2023-05-15T12:07:51.313Z,39.85
2023-05-15T12:13:14.521Z,40.25
2023-05-15T12:15:47.953Z,40.07
2023-05-15T12:18:20.240Z,39.96
2023-05-15T12:20:55.204Z,39.84
2023-05-15T12:23:28.911Z,39.80
2023-05-15T12:26:03.956Z,39.86
2023-05-15T12:28:37.991Z,39.86
2023-05-15T12:31:13.387Z,39.76
2023-05-15T12:33:46.287Z,39.45
2023-05-15T12:36:21.445Z,39.72
2023-05-15T12:38:54.016Z,39.59
2023-05-15T12:41:30.241Z,39.54
2023-05-15T12:44:02.660Z,39.71
2023-05-15T12:46:35.603Z,39.65
2023-05-15T12:49:07.843Z,39.64
2023-05-15T12:51:45.768Z,39.56
2023-05-15T12:54:21.852Z,39.60
2023-05-15T12:56:57.003Z,39.56
2023-05-15T12:59:30.083Z,39.39
2023-05-15T13:02:03.105Z,39.41
2023-05-15T13:04:37.987Z,39.70
2023-05-15T13:07:12.617Z,39.63
2023-05-15T13:09:46.429Z,39.54
2023-05-15T13:12:23.191Z,39.63
2023-05-15T13:14:55.540Z,39.56
2023-05-15T13:17:30.823Z,39.74
2023-05-15T13:20:01.465Z,39.61
2023-05-15T13:22:33.896Z,39.60
2023-05-15T13:25:07.364Z,39.63
2023-05-15T13:27:39.642Z,39.60
2023-05-15T13:30:13.849Z,39.59
2023-05-15T13:32:46.629Z,39.64
2023-05-15T13:35:19.338Z,39.58
2023-05-15T13:37:51.659Z,39.69
2023-05-15T13:40:24.735Z,39.39
2023-05-15T13:42:57.045Z,39.41
2023-05-15T13:45:29.311Z,39.47
2023-05-15T13:48:01.671Z,39.33
2023-05-15T13:50:34.145Z,39.33
2023-05-15T13:53:06.472Z,39.48
2023-05-15T13:55:38.892Z,39.48
2023-05-15T13:58:11.773Z,39.63
2023-05-15T14:00:45.524Z,39.65
2023-05-15T14:03:17.625Z,39.41
2023-05-15T14:05:49.852Z,39.70
2023-05-15T14:08:22.109Z,39.54
2023-05-15T14:10:54.360Z,39.64
2023-05-15T14:13:26.566Z,39.72
2023-05-15T14:15:59.169Z,39.82
2023-05-15T14:18:32.175Z,39.98
2023-05-15T14:21:04.774Z,39.85
2023-05-15T14:23:37.416Z,39.80
2023-05-15T14:26:09.756Z,39.54
2023-05-15T14:28:41.978Z,39.57
2023-05-15T14:31:14.309Z,39.72
2023-05-15T14:33:46.612Z,39.64
2023-05-15T14:36:19.041Z,39.47
2023-05-15T14:38:51.498Z,39.45
2023-05-15T14:41:23.870Z,39.27
2023-05-15T14:43:56.265Z,39.38
2023-05-15T14:46:28.591Z,39.46
2023-05-15T14:49:00.795Z,39.51
2023-05-15T14:51:33.521Z,39.51
2023-05-15T14:54:06.121Z,39.35
2023-05-15T14:56:38.204Z,39.41
2023-05-15T14:59:10.346Z,39.17
2023-05-15T15:01:43.016Z,38.95
2023-05-15T15:04:15.591Z,38.99
2023-05-15T15:06:49.844Z,39.11
2023-05-15T15:09:21.984Z,39.03
2023-05-15T15:11:54.269Z,39.17
2023-05-15T15:14:27.404Z,38.96
2023-05-15T15:16:59.983Z,38.81
2023-05-15T15:19:32.337Z,38.87
2023-05-15T15:22:04.620Z,38.60
2023-05-15T15:24:36.831Z,38.66
2023-05-15T15:27:09.151Z,38.66
2023-05-15T15:29:41.388Z,38.44
2023-05-15T15:32:13.659Z,38.34
2023-05-15T15:34:46.114Z,38.29
2023-05-15T15:37:18.448Z,38.46
2023-05-15T15:39:50.691Z,38.41
2023-05-15T15:42:22.757Z,38.45
2023-05-15T15:44:54.895Z,38.27
2023-05-15T15:47:29.729Z,38.23
2023-05-15T15:50:02.268Z,38.22
2023-05-15T15:52:34.699Z,38.33
2023-05-15T15:55:08.756Z,38.21
2023-05-15T15:57:41.113Z,38.14
2023-05-15T16:00:15.173Z,38.28
2023-05-15T16:02:47.700Z,38.10
2023-05-15T16:05:19.905Z,38.30
2023-05-15T16:07:52.143Z,38.00
2023-05-15T16:10:24.490Z,37.97
2023-05-15T16:12:57.089Z,38.09
2023-05-15T16:15:29.510Z,38.13
2023-05-15T16:18:01.837Z,38.10
2023-05-15T16:20:35.331Z,38.09
2023-05-15T16:23:09.589Z,38.17
2023-05-15T16:25:41.935Z,38.06
2023-05-15T16:28:14.755Z,38.15
2023-05-15T16:30:49.577Z,38.13
2023-05-15T16:33:22.894Z,38.18
2023-05-15T16:35:55.215Z,38.14
2023-05-15T16:38:27.512Z,38.10
2023-05-15T16:40:59.617Z,38.20
2023-05-15T16:43:31.782Z,38.11
2023-05-15T16:46:04.511Z,38.23
2023-05-15T16:48:37.243Z,38.15
2023-05-15T16:51:09.824Z,38.13
2023-05-15T16:53:42.132Z,38.03
2023-05-15T16:56:14.428Z,38.03
2023-05-15T16:58:46.590Z,38.19
2023-05-15T17:01:19.060Z,38.03
2023-05-15T17:03:52.855Z,38.07
2023-05-15T17:06:25.348Z,37.93
2023-05-15T17:08:57.491Z,38.02
2023-05-15T17:11:29.824Z,38.22
2023-05-15T17:14:02.173Z,38.06
2023-05-15T17:16:34.542Z,38.10
2023-05-15T17:19:06.683Z,38.05
2023-05-15T17:21:39.133Z,37.94
2023-05-15T17:24:11.578Z,38.31
2023-05-15T17:26:43.814Z,38.18
2023-05-15T17:29:16.037Z,38.27
2023-05-15T17:31:48.668Z,38.42
2023-05-15T17:34:20.874Z,38.20
2023-05-15T17:36:53.142Z,38.19
2023-05-15T17:39:25.599Z,38.29
2023-05-15T17:41:57.941Z,38.51
2023-05-15T17:44:31.233Z,38.51
2023-05-15T17:47:03.574Z,38.17
2023-05-15T17:49:35.690Z,38.35
2023-05-15T17:52:08.817Z,38.52
2023-05-15T17:54:41.193Z,38.27
2023-05-15T17:57:13.526Z,38.33
2023-05-15T17:59:45.642Z,38.43
2023-05-15T18:02:17.934Z,38.40
2023-05-15T18:04:51.172Z,38.51
2023-05-15T18:07:23.318Z,38.29
2023-05-15T18:09:55.648Z,38.58
2023-05-15T18:12:27.901Z,38.54
2023-05-15T18:15:00.064Z,38.79
2023-05-15T18:17:32.410Z,38.38
2023-05-15T18:20:05.766Z,38.67
2023-05-15T18:22:38.412Z,38.73
2023-05-15T18:25:11.172Z,38.71
2023-05-15T18:27:43.355Z,39.01
2023-05-15T18:30:16.575Z,38.99
2023-05-15T18:32:48.804Z,38.91
2023-05-15T18:35:21.355Z,39.11
2023-05-15T18:37:53.789Z,39.07
2023-05-15T18:40:26.576Z,39.19
2023-05-15T18:42:59.278Z,39.04
2023-05-15T18:45:31.640Z,39.13
2023-05-15T18:48:03.780Z,39.25
2023-05-15T18:50:36.217Z,39.38
2023-05-15T18:53:08.384Z,39.31
2023-05-15T18:55:40.688Z,39.37
2023-05-15T18:58:12.893Z,39.52
2023-05-15T19:00:45.200Z,39.44
2023-05-15T19:03:17.511Z,39.40
2023-05-15T19:05:50.043Z,39.53
2023-05-15T19:08:22.292Z,39.57
2023-05-15T19:10:54.726Z,39.51
2023-05-15T19:13:29.965Z,39.56
2023-05-15T19:16:03.272Z,39.70
2023-05-15T19:18:35.477Z,39.67
2023-05-15T19:21:08.032Z,39.84
2023-05-15T19:23:40.288Z,39.71
2023-05-15T19:26:12.482Z,39.72
2023-05-15T19:28:44.797Z,39.75
2023-05-15T19:31:27.824Z,39.91
2023-05-15T19:34:03.898Z,39.94
2023-05-15T19:36:36.218Z,40.07
2023-05-15T19:39:08.523Z,40.05
2023-05-15T19:41:40.847Z,40.08
2023-05-15T19:44:13.300Z,40.20
2023-05-15T19:46:46.694Z,40.30
2023-05-15T19:49:18.932Z,40.11
2023-05-15T19:51:51.656Z,40.29
2023-05-15T19:54:24.055Z,40.34
2023-05-15T19:56:58.645Z,40.27
2023-05-15T19:59:31.088Z,40.28
2023-05-15T20:02:05.259Z,40.41
2023-05-15T20:04:38.029Z,40.31
2023-05-15T20:07:10.182Z,40.44
2023-05-15T20:09:42.486Z,40.28
2023-05-15T20:12:14.566Z,40.36
2023-05-15T20:14:52.294Z,40.33
2023-05-15T20:17:24.740Z,40.40
2023-05-15T20:19:59.197Z,40.41
2023-05-15T20:22:31.671Z,40.46
2023-05-15T20:25:04.514Z,40.47
2023-05-15T20:27:36.814Z,40.52
2023-05-15T20:30:10.871Z,40.58
2023-05-15T20:32:43.098Z,40.69
2023-05-15T20:35:16.124Z,40.55
2023-05-15T20:37:48.797Z,40.57
2023-05-15T20:40:23.034Z,40.55
2023-05-15T20:42:56.957Z,40.66
2023-05-15T20:45:29.683Z,40.70
2023-05-15T20:48:01.941Z,40.77
2023-05-15T20:50:34.259Z,40.66
2023-05-15T20:53:07.037Z,40.74
2023-05-15T20:55:39.366Z,40.70
2023-05-15T20:58:11.728Z,40.69
2023-05-15T21:00:43.936Z,40.76
2023-05-15T21:03:16.348Z,40.71
2023-05-15T21:05:49.966Z,40.75
2023-05-15T21:08:22.244Z,40.72
2023-05-15T21:10:55.720Z,40.73
2023-05-15T21:13:28.357Z,40.81
2023-05-15T21:16:00.585Z,40.74
2023-05-15T21:18:32.970Z,40.84
2023-05-15T21:21:07.237Z,40.74
2023-05-15T21:23:39.472Z,40.89
2023-05-15T21:26:12.190Z,40.96
2023-05-15T21:28:44.469Z,41.02
2023-05-15T21:31:16.556Z,41.00
2023-05-15T21:33:48.790Z,40.97
2023-05-15T21:36:21.069Z,41.00
2023-05-15T21:38:53.452Z,41.04
2023-05-15T21:41:26.376Z,41.13
2023-05-15T21:43:58.609Z,41.12
2023-05-15T21:46:30.860Z,41.16
2023-05-15T21:49:03.888Z,41.20
2023-05-15T21:51:36.222Z,41.36
2023-05-15T21:54:08.595Z,41.50
2023-05-15T21:56:41.318Z,41.70
2023-05-15T21:59:14.670Z,41.77
2023-05-15T22:01:47.071Z,41.89
2023-05-15T22:04:19.559Z,41.96
2023-05-15T22:06:52.058Z,42.09
2023-05-15T22:09:24.268Z,42.11
2023-05-15T22:11:56.578Z,42.22
2023-05-15T22:14:35.142Z,42.27
2023-05-15T22:17:07.681Z,42.34
2023-05-15T22:19:42.404Z,42.47
2023-05-15T22:22:15.009Z,42.46
2023-05-15T22:24:47.288Z,42.55
2023-05-15T22:27:19.838Z,42.58
2023-05-15T22:29:52.217Z,42.68
2023-05-15T22:32:24.515Z,42.61
2023-05-15T22:34:57.064Z,42.75
2023-05-15T22:37:29.246Z,42.81
2023-05-15T22:40:01.614Z,42.79
2023-05-15T22:42:33.878Z,42.89
2023-05-15T22:45:07.261Z,42.91
2023-05-15T22:47:40.125Z,42.96
2023-05-15T22:50:13.367Z,42.95
2023-05-15T22:52:45.896Z,42.98
2023-05-15T22:55:21.220Z,43.03
2023-05-15T22:57:53.456Z,43.11
2023-05-15T23:00:26.280Z,43.16
2023-05-15T23:02:59.063Z,43.16
2023-05-15T23:05:31.314Z,43.18
2023-05-15T23:08:56.628Z,43.20
2023-05-15T23:11:29.512Z,43.35
2023-05-15T23:14:02.167Z,43.37
2023-05-15T23:16:34.435Z,43.42
2023-05-15T23:19:06.766Z,43.45
2023-05-15T23:21:39.489Z,43.53
2023-05-15T23:24:11.778Z,43.58
2023-05-15T23:26:44.421Z,43.71
2023-05-15T23:29:16.802Z,43.70
2023-05-15T23:31:49.078Z,43.80
2023-05-15T23:34:21.490Z,43.74
2023-05-15T23:36:53.703Z,43.80
2023-05-15T23:39:25.856Z,43.87
2023-05-15T23:42:00.199Z,43.87
2023-05-15T23:44:32.617Z,43.96
2023-05-15T23:47:05.339Z,44.05
2023-05-15T23:49:37.493Z,44.03
2023-05-15T23:52:10.184Z,44.19
2023-05-15T23:54:42.295Z,44.15
2023-05-15T23:57:14.456Z,44.20
2023-05-15T23:59:46.761Z,44.29
